createdAt,value
2022-12-31T00:02:00.020Z,12.33
2022-12-31T00:04:32.739Z,12.38
2022-12-31T00:07:02.916Z,12.39
2022-12-31T00:09:36.299Z,12.43
2022-12-31T00:12:10.077Z,12.44
2022-12-31T00:14:40.233Z,12.41
2022-12-31T00:17:11.528Z,12.45
2022-12-31T00:19:44.095Z,12.52
2022-12-31T00:22:14.260Z,12.51
2022-12-31T00:24:44.094Z,12.66
2022-12-31T00:27:13.935Z,12.60
2022-12-31T00:29:46.082Z,12.60
2022-12-31T00:32:15.961Z,12.62
2022-12-31T00:34:48.726Z,12.62
2022-12-31T00:37:19.011Z,12.62
2022-12-31T00:39:49.083Z,12.62
2022-12-31T00:42:19.105Z,12.66
2022-12-31T00:44:48.873Z,12.64
2022-12-31T00:47:19.221Z,12.65
2022-12-31T00:49:52.937Z,12.71
2022-12-31T00:52:23.053Z,12.74
2022-12-31T00:54:52.989Z,12.85
2022-12-31T00:57:23.137Z,12.80
2022-12-31T00:59:53.273Z,12.85
2022-12-31T01:02:23.699Z,12.92
2022-12-31T01:04:56.994Z,12.89
2022-12-31T01:07:27.211Z,12.96
2022-12-31T01:09:57.127Z,12.96
2022-12-31T01:12:27.765Z,12.97
2022-12-31T01:14:57.600Z,13.00
2022-12-31T01:17:27.739Z,12.96
2022-12-31T01:20:00.176Z,13.02
2022-12-31T01:22:30.039Z,12.95
2022-12-31T01:24:59.886Z,12.94
2022-12-31T01:27:30.001Z,13.00
2022-12-31T01:29:59.879Z,12.98
2022-12-31T01:32:29.819Z,13.02
2022-12-31T01:35:02.260Z,13.04
2022-12-31T01:37:33.767Z,12.98
2022-12-31T01:40:03.888Z,12.96
2022-12-31T01:42:33.716Z,12.99
2022-12-31T01:45:03.815Z,12.98
2022-12-31T01:47:41.595Z,13.01
2022-12-31T01:50:19.192Z,13.02
2022-12-31T01:52:53.241Z,13.03
2022-12-31T01:55:28.192Z,13.00
2022-12-31T01:58:04.230Z,13.01
2022-12-31T02:00:37.138Z,13.04
2022-12-31T02:03:10.396Z,13.01
2022-12-31T02:05:50.848Z,13.02
2022-12-31T02:08:21.537Z,13.02
2022-12-31T02:10:51.406Z,13.04
2022-12-31T02:13:21.597Z,12.98
2022-12-31T02:16:08.137Z,12.96
2022-12-31T02:18:48.644Z,12.90
2022-12-31T02:21:42.841Z,12.85
2022-12-31T02:24:41.267Z,12.90
2022-12-31T02:27:16.248Z,12.88
2022-12-31T02:30:17.136Z,12.89
2022-12-31T02:33:06.186Z,12.90
2022-12-31T02:35:49.329Z,12.91
2022-12-31T02:38:25.280Z,12.93
2022-12-31T02:40:57.240Z,12.92
2022-12-31T02:43:27.711Z,12.95
2022-12-31T02:46:11.381Z,12.93
2022-12-31T02:48:56.036Z,12.94
2022-12-31T02:51:39.555Z,12.92
2022-12-31T02:54:26.627Z,12.92
2022-12-31T02:57:09.670Z,12.99
2022-12-31T02:59:59.653Z,12.99
2022-12-31T03:02:38.331Z,12.99
2022-12-31T03:05:09.804Z,13.02
2022-12-31T03:07:39.852Z,13.07
2022-12-31T03:10:11.195Z,13.06
2022-12-31T03:12:49.215Z,13.11
2022-12-31T03:15:24.816Z,13.08
2022-12-31T03:18:02.158Z,13.10
2022-12-31T03:20:47.944Z,13.14
2022-12-31T03:23:22.744Z,13.13
2022-12-31T03:25:50.161Z,13.18
2022-12-31T03:28:21.995Z,13.19
2022-12-31T03:30:54.611Z,13.15
2022-12-31T03:33:28.782Z,13.21
2022-12-31T03:35:58.604Z,13.19
2022-12-31T03:38:28.565Z,13.27
2022-12-31T03:40:59.229Z,13.26
2022-12-31T03:43:29.580Z,13.25
2022-12-31T03:46:01.724Z,13.25
2022-12-31T03:48:34.234Z,13.25
2022-12-31T03:51:04.025Z,13.23
2022-12-31T03:53:36.005Z,13.28
2022-12-31T03:56:06.054Z,13.35
2022-12-31T03:58:35.947Z,13.37
2022-12-31T04:01:05.960Z,13.45
2022-12-31T04:03:38.895Z,13.42
2022-12-31T04:06:09.849Z,13.44
2022-12-31T04:08:39.661Z,13.49
2022-12-31T04:11:09.522Z,13.54
2022-12-31T04:13:39.553Z,13.62
2022-12-31T04:16:09.365Z,13.59
2022-12-31T04:18:41.847Z,13.66
2022-12-31T04:21:12.064Z,13.67
2022-12-31T04:23:43.483Z,13.68
2022-12-31T04:26:13.367Z,13.74
2022-12-31T04:28:43.224Z,13.78
2022-12-31T04:31:13.963Z,13.78
2022-12-31T04:33:46.614Z,13.73
2022-12-31T04:36:16.762Z,13.76
2022-12-31T04:38:46.703Z,14.01
2022-12-31T04:41:20.809Z,14.04
2022-12-31T04:43:53.137Z,14.38
2022-12-31T04:46:25.604Z,14.13
2022-12-31T04:48:58.716Z,14.24
2022-12-31T04:51:30.548Z,14.18
2022-12-31T04:54:01.011Z,14.20
2022-12-31T04:56:32.194Z,14.41
2022-12-31T04:59:02.301Z,14.27
2022-12-31T05:01:33.575Z,14.26
2022-12-31T05:04:06.348Z,14.22
2022-12-31T05:06:36.233Z,14.41
2022-12-31T05:09:06.936Z,14.44
2022-12-31T05:11:37.972Z,14.46
2022-12-31T05:14:07.886Z,14.57
2022-12-31T05:16:37.745Z,14.60
2022-12-31T05:19:10.179Z,14.53
2022-12-31T05:21:41.522Z,14.70
2022-12-31T05:24:11.538Z,14.48
2022-12-31T05:26:41.669Z,14.41
2022-12-31T05:29:11.912Z,14.41
2022-12-31T05:31:41.765Z,14.30
2022-12-31T05:34:14.599Z,14.48
2022-12-31T05:36:44.458Z,14.41
2022-12-31T05:39:14.924Z,14.46
2022-12-31T05:41:44.742Z,14.45
2022-12-31T05:44:14.981Z,14.42
2022-12-31T05:46:44.842Z,14.43
2022-12-31T05:49:17.607Z,14.31
2022-12-31T05:51:47.758Z,14.36
2022-12-31T05:54:17.629Z,14.24
2022-12-31T05:56:47.658Z,14.11
2022-12-31T05:59:17.498Z,14.01
2022-12-31T06:01:47.371Z,14.07
2022-12-31T06:04:20.393Z,14.12
2022-12-31T06:06:50.307Z,14.11
2022-12-31T06:09:22.002Z,14.03
2022-12-31T06:11:52.690Z,13.99
2022-12-31T06:14:22.819Z,13.93
2022-12-31T06:16:52.680Z,13.92
2022-12-31T06:19:25.199Z,13.92
2022-12-31T06:21:55.054Z,13.85
2022-12-31T06:24:24.991Z,13.84
2022-12-31T06:26:54.837Z,13.81
2022-12-31T06:29:24.659Z,13.82
2022-12-31T06:31:54.882Z,13.84
2022-12-31T06:34:27.584Z,13.82
2022-12-31T06:36:57.885Z,13.82
2022-12-31T06:39:28.296Z,13.80
2022-12-31T06:41:58.557Z,13.74
2022-12-31T06:44:28.745Z,13.77
2022-12-31T06:46:58.628Z,13.74
2022-12-31T06:49:30.998Z,13.75
2022-12-31T06:52:00.798Z,13.77
2022-12-31T06:54:30.874Z,13.78
2022-12-31T06:57:02.244Z,13.76
2022-12-31T06:59:33.451Z,13.73
2022-12-31T07:02:17.106Z,13.81
2022-12-31T07:05:07.991Z,13.70
2022-12-31T07:07:51.186Z,13.78
2022-12-31T07:10:36.678Z,13.77
2022-12-31T07:13:27.693Z,13.79
2022-12-31T07:16:12.283Z,13.83
2022-12-31T07:18:53.684Z,13.82
2022-12-31T07:21:37.243Z,13.82
2022-12-31T07:24:10.254Z,13.76
2022-12-31T07:27:00.125Z,13.79
2022-12-31T07:29:45.781Z,13.77
2022-12-31T07:32:28.688Z,13.82
2022-12-31T07:35:08.005Z,13.83
2022-12-31T07:37:52.031Z,13.94
2022-12-31T07:40:32.215Z,13.96
2022-12-31T07:43:16.973Z,13.94
2022-12-31T07:45:56.210Z,13.92
2022-12-31T07:48:29.260Z,13.93
2022-12-31T07:51:00.807Z,13.98
2022-12-31T07:53:34.096Z,14.13
2022-12-31T07:56:06.686Z,14.17
2022-12-31T07:58:59.977Z,14.02
2022-12-31T08:01:39.786Z,13.92
2022-12-31T08:04:22.576Z,14.27
2022-12-31T08:07:07.560Z,14.82
2022-12-31T08:09:49.666Z,15.06
2022-12-31T08:12:22.891Z,14.77
2022-12-31T08:14:55.438Z,14.63
2022-12-31T08:17:26.080Z,14.73
2022-12-31T08:19:56.645Z,15.24
2022-12-31T08:22:51.721Z,15.22
2022-12-31T08:25:33.326Z,15.00
2022-12-31T08:28:18.605Z,14.90
2022-12-31T08:31:00.596Z,14.87
2022-12-31T08:33:40.513Z,14.92
2022-12-31T08:36:21.162Z,14.98
2022-12-31T08:39:01.001Z,15.47
2022-12-31T08:41:44.410Z,17.18
2022-12-31T08:44:28.707Z,18.45
2022-12-31T08:47:09.869Z,19.63
2022-12-31T08:49:40.848Z,20.34
2022-12-31T08:52:18.474Z,21.07
2022-12-31T08:54:49.049Z,21.70
2022-12-31T08:57:33.834Z,21.25
2022-12-31T09:00:09.472Z,22.50
2022-12-31T09:03:03.309Z,23.20
2022-12-31T09:05:41.830Z,21.33
2022-12-31T09:08:26.795Z,22.28
2022-12-31T09:11:03.435Z,20.70
2022-12-31T09:14:01.776Z,21.32
2022-12-31T09:16:45.963Z,22.07
2022-12-31T09:19:18.303Z,21.74
2022-12-31T09:21:48.681Z,23.43
2022-12-31T09:24:19.597Z,23.00
2022-12-31T09:27:03.501Z,20.94
2022-12-31T09:29:48.658Z,19.47
2022-12-31T09:32:32.436Z,19.33
2022-12-31T09:35:15.091Z,18.96
2022-12-31T09:37:49.783Z,18.89
2022-12-31T09:40:51.926Z,19.96
2022-12-31T09:44:01.487Z,23.35
2022-12-31T09:47:01.286Z,24.67
2022-12-31T09:50:05.456Z,25.79
2022-12-31T09:52:52.515Z,23.99
2022-12-31T09:55:37.477Z,24.29
2022-12-31T09:58:28.565Z,23.87
2022-12-31T10:01:10.903Z,25.11
2022-12-31T10:04:12.992Z,25.46
2022-12-31T10:07:02.761Z,26.29
2022-12-31T10:09:49.825Z,25.08
2022-12-31T10:12:49.713Z,21.84
2022-12-31T10:15:53.101Z,22.72
2022-12-31T10:18:40.854Z,24.00
2022-12-31T10:21:30.094Z,22.90
2022-12-31T10:24:30.767Z,21.36
2022-12-31T10:27:17.709Z,21.01
2022-12-31T10:29:54.094Z,20.50
2022-12-31T10:32:39.973Z,20.34
2022-12-31T10:35:26.582Z,19.90
2022-12-31T10:38:09.685Z,19.84
2022-12-31T10:41:27.299Z,19.36
2022-12-31T10:44:36.082Z,19.47
2022-12-31T10:47:45.828Z,19.35
2022-12-31T10:50:40.488Z,19.19
2022-12-31T10:53:44.361Z,19.41
2022-12-31T10:57:04.473Z,19.24
2022-12-31T11:00:05.964Z,19.03
2022-12-31T11:03:13.306Z,18.76
2022-12-31T11:06:29.538Z,18.69
2022-12-31T11:09:49.420Z,18.87
2022-12-31T11:12:44.014Z,18.94
2022-12-31T11:15:38.807Z,18.86
2022-12-31T11:18:22.483Z,18.92
2022-12-31T11:21:12.109Z,18.88
2022-12-31T11:23:56.708Z,18.93
2022-12-31T11:26:44.530Z,18.94
2022-12-31T11:29:41.252Z,19.04
2022-12-31T11:32:30.867Z,19.25
2022-12-31T11:35:17.692Z,19.50
2022-12-31T11:37:51.839Z,19.72
2022-12-31T11:40:40.587Z,19.86
2022-12-31T11:43:24.486Z,20.08
2022-12-31T11:46:24.382Z,20.17
2022-12-31T11:49:17.426Z,20.34
2022-12-31T11:52:05.259Z,20.48
2022-12-31T11:55:07.151Z,20.34
2022-12-31T11:57:39.758Z,20.33
2022-12-31T12:00:20.708Z,20.27
2022-12-31T12:02:56.585Z,20.35
2022-12-31T12:05:29.174Z,20.43
2022-12-31T12:07:59.458Z,20.28
2022-12-31T12:10:37.105Z,20.27
2022-12-31T12:13:16.963Z,20.25
2022-12-31T12:15:51.736Z,20.38
2022-12-31T12:18:37.025Z,20.32
2022-12-31T12:21:12.368Z,20.44
2022-12-31T12:23:46.281Z,20.21
2022-12-31T12:26:31.226Z,19.90
2022-12-31T12:29:04.315Z,19.70
2022-12-31T12:31:34.315Z,19.67
2022-12-31T12:34:09.312Z,19.69
2022-12-31T12:36:50.014Z,19.68
2022-12-31T12:39:27.534Z,19.61
2022-12-31T12:42:06.785Z,19.71
2022-12-31T12:44:38.208Z,19.61
2022-12-31T12:47:11.771Z,19.47
2022-12-31T12:49:49.523Z,19.45
2022-12-31T12:52:57.837Z,19.25
2022-12-31T12:55:44.568Z,19.26
2022-12-31T12:58:30.393Z,19.15
2022-12-31T13:01:13.623Z,19.11
2022-12-31T13:04:35.934Z,18.93
2022-12-31T13:07:27.733Z,18.94
2022-12-31T13:10:15.243Z,18.84
2022-12-31T13:13:23.309Z,18.83
2022-12-31T13:16:00.016Z,18.60
2022-12-31T13:18:44.515Z,18.59
2022-12-31T13:21:33.960Z,18.52
2022-12-31T13:24:24.210Z,18.46
2022-12-31T13:27:03.441Z,18.41
2022-12-31T13:29:38.111Z,18.33
2022-12-31T13:32:18.573Z,18.18
2022-12-31T13:34:54.399Z,18.13
2022-12-31T13:37:34.045Z,18.06
2022-12-31T13:40:21.180Z,18.03
2022-12-31T13:42:58.808Z,17.99
2022-12-31T13:45:35.677Z,17.90
2022-12-31T13:48:17.173Z,17.85
2022-12-31T13:50:58.276Z,17.77
2022-12-31T13:53:39.163Z,17.70
2022-12-31T13:56:19.555Z,17.60
2022-12-31T13:58:56.005Z,17.63
2022-12-31T14:01:36.142Z,17.48
2022-12-31T14:04:13.131Z,17.48
2022-12-31T14:06:52.501Z,17.46
2022-12-31T14:09:26.931Z,17.43
2022-12-31T14:12:24.608Z,17.40
2022-12-31T14:15:06.376Z,17.42
2022-12-31T14:17:53.527Z,17.26
2022-12-31T14:20:35.443Z,17.16
2022-12-31T14:23:21.035Z,17.06
2022-12-31T14:25:57.253Z,17.10
2022-12-31T14:28:44.698Z,16.78
2022-12-31T14:31:33.523Z,16.70
2022-12-31T14:34:17.505Z,16.56
2022-12-31T14:37:00.060Z,16.46
2022-12-31T14:39:49.439Z,16.37
2022-12-31T14:42:32.784Z,16.31
2022-12-31T14:45:30.207Z,16.22
2022-12-31T14:48:18.599Z,16.12
2022-12-31T14:50:52.788Z,16.17
2022-12-31T14:53:27.336Z,16.13
2022-12-31T14:56:02.460Z,16.07
2022-12-31T14:58:37.533Z,16.14
2022-12-31T15:01:26.121Z,16.02
2022-12-31T15:03:58.758Z,16.04
2022-12-31T15:06:46.070Z,15.98
2022-12-31T15:09:37.528Z,15.75
2022-12-31T15:12:33.584Z,15.50
2022-12-31T15:15:29.459Z,15.35
2022-12-31T15:18:22.017Z,15.15
2022-12-31T15:21:17.961Z,15.13
2022-12-31T15:23:49.751Z,15.13
2022-12-31T15:26:27.074Z,14.99
2022-12-31T15:29:03.977Z,14.83
2022-12-31T15:31:38.314Z,14.73
2022-12-31T15:34:29.811Z,14.66
2022-12-31T15:37:02.879Z,14.59
2022-12-31T15:39:54.976Z,14.36
2022-12-31T15:42:49.843Z,14.10
2022-12-31T15:45:29.582Z,14.20
2022-12-31T15:48:04.975Z,14.09
2022-12-31T15:50:42.000Z,14.12
2022-12-31T15:53:29.981Z,14.25
2022-12-31T15:56:03.680Z,14.31
2022-12-31T15:58:38.563Z,14.15
2022-12-31T16:01:18.878Z,14.14
2022-12-31T16:03:54.995Z,13.80
2022-12-31T16:06:31.353Z,13.63
2022-12-31T16:09:02.055Z,13.69
2022-12-31T16:11:32.755Z,13.67
2022-12-31T16:14:02.697Z,13.63
2022-12-31T16:16:36.104Z,13.79
2022-12-31T16:19:06.298Z,14.01
2022-12-31T16:21:40.772Z,14.02
2022-12-31T16:24:31.734Z,13.99
2022-12-31T16:27:08.368Z,13.96
2022-12-31T16:29:40.463Z,13.79
2022-12-31T16:32:19.182Z,13.71
2022-12-31T16:34:49.458Z,13.64
2022-12-31T16:37:24.963Z,13.69
2022-12-31T16:40:12.199Z,13.70
2022-12-31T16:42:44.611Z,13.78
2022-12-31T16:45:27.566Z,13.55
2022-12-31T16:47:58.394Z,13.35
2022-12-31T16:50:29.499Z,13.47
2022-12-31T16:53:09.395Z,13.52
2022-12-31T16:55:39.441Z,13.31
2022-12-31T16:58:22.195Z,13.16
2022-12-31T17:00:54.712Z,13.14
2022-12-31T17:03:27.798Z,13.16
2022-12-31T17:06:01.586Z,13.05
2022-12-31T17:08:44.472Z,13.02
2022-12-31T17:11:31.748Z,13.10
2022-12-31T17:14:14.609Z,13.18
2022-12-31T17:17:02.110Z,13.11
2022-12-31T17:19:46.344Z,13.18
2022-12-31T17:22:31.827Z,13.30
2022-12-31T17:25:12.126Z,13.10
2022-12-31T17:27:42.067Z,13.02
2022-12-31T17:30:40.180Z,12.90
2022-12-31T17:33:32.424Z,12.94
2022-12-31T17:36:25.560Z,12.95
2022-12-31T17:38:55.459Z,12.94
2022-12-31T17:41:30.688Z,12.99
2022-12-31T17:44:00.674Z,13.13
2022-12-31T17:46:31.215Z,13.09
2022-12-31T17:49:05.039Z,12.99
2022-12-31T17:51:35.264Z,13.03
2022-12-31T17:54:05.184Z,13.06
2022-12-31T17:56:39.103Z,12.96
2022-12-31T17:59:09.736Z,13.04
2022-12-31T18:01:39.759Z,12.96
2022-12-31T18:04:15.192Z,12.93
2022-12-31T18:06:46.110Z,12.78
2022-12-31T18:09:16.565Z,12.75
2022-12-31T18:11:49.591Z,12.79
2022-12-31T18:14:19.848Z,12.79
2022-12-31T18:16:49.958Z,12.57
2022-12-31T18:19:45.859Z,12.56
2022-12-31T18:22:10.408Z,12.54
2022-12-31T18:24:40.586Z,12.58
2022-12-31T18:27:19.498Z,12.67
2022-12-31T18:29:50.445Z,12.65
2022-12-31T18:32:25.277Z,12.65
2022-12-31T18:34:55.400Z,12.59
2022-12-31T18:37:25.537Z,12.62
2022-12-31T18:39:55.549Z,12.60
2022-12-31T18:42:31.533Z,12.53
2022-12-31T18:45:01.804Z,12.42
2022-12-31T18:47:37.427Z,12.28
2022-12-31T18:50:09.231Z,12.32
2022-12-31T18:52:39.400Z,12.19
2022-12-31T18:55:27.221Z,12.27
2022-12-31T18:57:59.619Z,12.20
2022-12-31T19:00:29.707Z,11.75
2022-12-31T19:02:59.936Z,11.87
2022-12-31T19:05:32.157Z,11.83
2022-12-31T19:08:02.994Z,11.86
2022-12-31T19:10:33.183Z,11.76
2022-12-31T19:13:06.415Z,11.82
2022-12-31T19:15:44.656Z,12.10
2022-12-31T19:18:15.522Z,11.90
2022-12-31T19:20:45.756Z,11.84
2022-12-31T19:23:19.052Z,11.75
2022-12-31T19:25:50.470Z,11.74
2022-12-31T19:28:25.439Z,11.61
2022-12-31T19:30:58.618Z,11.48
2022-12-31T19:33:28.550Z,11.54
2022-12-31T19:35:58.966Z,11.64
2022-12-31T19:38:32.217Z,11.66
2022-12-31T19:41:03.951Z,11.61
2022-12-31T19:43:36.425Z,11.69
2022-12-31T19:46:07.268Z,11.66
2022-12-31T19:48:37.462Z,11.64
2022-12-31T19:51:13.088Z,11.57
2022-12-31T19:53:43.622Z,11.52
2022-12-31T19:56:16.316Z,11.44
2022-12-31T19:58:49.525Z,11.48
2022-12-31T20:01:23.103Z,11.48
2022-12-31T20:03:53.999Z,11.47
2022-12-31T20:06:27.618Z,11.47
2022-12-31T20:08:58.469Z,11.47
2022-12-31T20:11:28.781Z,11.42
2022-12-31T20:14:01.591Z,11.41
2022-12-31T20:16:34.214Z,11.43
2022-12-31T20:19:04.197Z,11.45
2022-12-31T20:21:34.513Z,11.44
2022-12-31T20:24:04.441Z,11.48
2022-12-31T20:26:34.584Z,11.49
2022-12-31T20:29:07.153Z,11.48
2022-12-31T20:31:37.309Z,11.47
2022-12-31T20:34:07.627Z,11.48
2022-12-31T20:36:37.450Z,11.45
2022-12-31T20:39:07.461Z,11.36
2022-12-31T20:41:37.386Z,11.36
2022-12-31T20:44:10.924Z,11.32
2022-12-31T20:46:41.066Z,11.36
2022-12-31T20:49:13.922Z,11.32
2022-12-31T20:51:48.841Z,11.20
2022-12-31T20:54:21.916Z,11.26
2022-12-31T20:56:51.876Z,11.32
2022-12-31T20:59:24.641Z,11.07
2022-12-31T21:02:20.457Z,11.10
2022-12-31T21:04:47.252Z,11.00
2022-12-31T21:07:17.299Z,10.88
2022-12-31T21:09:47.145Z,11.00
2022-12-31T21:12:29.493Z,11.19
2022-12-31T21:15:02.471Z,11.16
2022-12-31T21:17:33.120Z,11.21
2022-12-31T21:20:03.218Z,11.24
2022-12-31T21:22:34.070Z,11.27
2022-12-31T21:25:05.010Z,11.33
2022-12-31T21:27:34.911Z,11.40
2022-12-31T21:30:23.642Z,11.27
2022-12-31T21:32:54.192Z,11.38
2022-12-31T21:35:55.109Z,11.46
2022-12-31T21:38:16.927Z,11.59
2022-12-31T21:40:47.604Z,11.66
2022-12-31T21:43:18.761Z,11.63
2022-12-31T21:46:05.404Z,11.58
2022-12-31T21:48:36.408Z,11.76
2022-12-31T21:51:13.017Z,11.69
2022-12-31T21:53:43.150Z,11.75
2022-12-31T21:56:11.586Z,11.76
2022-12-31T21:58:45.442Z,11.82
2022-12-31T22:01:36.306Z,11.69
2022-12-31T22:04:12.887Z,11.62
2022-12-31T22:06:52.916Z,11.58
2022-12-31T22:09:23.229Z,11.54
2022-12-31T22:11:53.096Z,11.61
2022-12-31T22:14:22.997Z,11.58
2022-12-31T22:16:55.708Z,11.57
2022-12-31T22:19:26.128Z,11.55
2022-12-31T22:21:56.494Z,11.55
2022-12-31T22:24:27.807Z,11.52
2022-12-31T22:27:00.116Z,11.45
2022-12-31T22:29:51.507Z,11.44
2022-12-31T22:32:24.163Z,11.44
2022-12-31T22:34:55.415Z,11.38
2022-12-31T22:37:55.629Z,11.23
2022-12-31T22:40:16.300Z,11.26
2022-12-31T22:42:46.674Z,11.24
2022-12-31T22:45:16.510Z,11.27
2022-12-31T22:47:49.692Z,11.27
2022-12-31T22:50:19.775Z,11.25
2022-12-31T22:52:50.139Z,11.21
2022-12-31T22:55:20.436Z,11.18
2022-12-31T22:57:54.136Z,11.19
2022-12-31T23:00:40.236Z,11.16
2022-12-31T23:03:15.037Z,11.20
2022-12-31T23:05:45.028Z,11.25
2022-12-31T23:08:22.341Z,11.23
2022-12-31T23:11:01.435Z,11.29
2022-12-31T23:13:50.687Z,11.34
2022-12-31T23:16:34.676Z,11.45
2022-12-31T23:19:23.273Z,11.56
2022-12-31T23:22:08.512Z,11.58
2022-12-31T23:24:41.484Z,11.69
2022-12-31T23:27:13.555Z,11.99
2022-12-31T23:29:47.492Z,11.91
2022-12-31T23:32:18.769Z,12.02
2022-12-31T23:34:51.226Z,12.40
2022-12-31T23:37:23.989Z,12.26
2022-12-31T23:39:53.890Z,12.27
2022-12-31T23:42:23.784Z,12.34
2022-12-31T23:44:54.068Z,12.37
2022-12-31T23:47:24.166Z,12.30
2022-12-31T23:49:58.196Z,12.28
2022-12-31T23:52:28.865Z,12.23
2022-12-31T23:54:59.299Z,12.23
2022-12-31T23:57:29.765Z,12.24
